sensor_id;sensor_type;location;lat;lon;timestamp;P1;durP1;ratioP1;P2;durP2;ratioP2
43216;SDS011;60511;42.686;23.300;2023-02-20T00:01:07;625.47;;;415.75;;
43216;SDS011;60511;42.686;23.300;2023-02-20T00:03:08;566.10;;;384.15;;
43216;SDS011;60511;42.686;23.300;2023-02-20T00:05:10;588.55;;;425.10;;
43216;SDS011;60511;42.686;23.300;2023-02-20T00:07:11;628.65;;;425.27;;
43216;SDS011;60511;42.686;23.300;2023-02-20T00:09:12;393.35;;;350.25;;
43216;SDS011;60511;42.686;23.300;2023-02-20T00:11:13;286.52;;;257.88;;
43216;SDS011;60511;42.686;23.300;2023-02-20T00:13:13;290.75;;;262.98;;
43216;SDS011;60511;42.686;23.300;2023-02-20T00:15:14;752.35;;;445.67;;
43216;SDS011;60511;42.686;23.300;2023-02-20T00:17:16;331.90;;;297.55;;
43216;SDS011;60511;42.686;23.300;2023-02-20T00:19:16;347.88;;;310.33;;
43216;SDS011;60511;42.686;23.300;2023-02-20T00:21:16;609.35;;;382.45;;
43216;SDS011;60511;42.686;23.300;2023-02-20T00:23:17;507.42;;;372.48;;
43216;SDS011;60511;42.686;23.300;2023-02-20T00:25:18;260.30;;;234.77;;
43216;SDS011;60511;42.686;23.300;2023-02-20T00:27:19;348.48;;;313.35;;
43216;SDS011;60511;42.686;23.300;2023-02-20T00:29:20;497.25;;;396.50;;
43216;SDS011;60511;42.686;23.300;2023-02-20T00:31:22;527.92;;;394.33;;
43216;SDS011;60511;42.686;23.300;2023-02-20T00:33:22;346.88;;;311.92;;
43216;SDS011;60511;42.686;23.300;2023-02-20T00:35:23;252.05;;;226.80;;
43216;SDS011;60511;42.686;23.300;2023-02-20T00:37:25;178.32;;;161.27;;
43216;SDS011;60511;42.686;23.300;2023-02-20T00:39:25;274.65;;;247.45;;
43216;SDS011;60511;42.686;23.300;2023-02-20T00:41:25;226.63;;;204.88;;
43216;SDS011;60511;42.686;23.300;2023-02-20T00:43:27;242.68;;;218.95;;
43216;SDS011;60511;42.686;23.300;2023-02-20T00:45:28;259.00;;;233.82;;
43216;SDS011;60511;42.686;23.300;2023-02-20T00:47:28;288.77;;;261.13;;
43216;SDS011;60511;42.686;23.300;2023-02-20T00:49:29;265.73;;;240.63;;
43216;SDS011;60511;42.686;23.300;2023-02-20T00:51:29;213.68;;;193.27;;
43216;SDS011;60511;42.686;23.300;2023-02-20T00:53:31;230.98;;;208.73;;
43216;SDS011;60511;42.686;23.300;2023-02-20T00:55:31;365.08;;;288.35;;
43216;SDS011;60511;42.686;23.300;2023-02-20T00:57:31;263.17;;;238.05;;
43216;SDS011;60511;42.686;23.300;2023-02-20T00:59:32;340.25;;;306.98;;
43216;SDS011;60511;42.686;23.300;2023-02-20T01:01:32;381.95;;;336.58;;
43216;SDS011;60511;42.686;23.300;2023-02-20T01:03:33;369.63;;;329.67;;
43216;SDS011;60511;42.686;23.300;2023-02-20T01:05:33;464.73;;;376.17;;
43216;SDS011;60511;42.686;23.300;2023-02-20T01:07:33;305.00;;;274.60;;
43216;SDS011;60511;42.686;23.300;2023-02-20T01:09:34;296.58;;;267.40;;
43216;SDS011;60511;42.686;23.300;2023-02-20T01:11:34;278.33;;;251.35;;
43216;SDS011;60511;42.686;23.300;2023-02-20T01:13:34;260.52;;;235.55;;
43216;SDS011;60511;42.686;23.300;2023-02-20T01:15:35;241.52;;;218.23;;
43216;SDS011;60511;42.686;23.300;2023-02-20T01:17:36;200.65;;;181.63;;
43216;SDS011;60511;42.686;23.300;2023-02-20T01:19:36;297.75;;;268.85;;
43216;SDS011;60511;42.686;23.300;2023-02-20T01:21:36;239.77;;;217.18;;
43216;SDS011;60511;42.686;23.300;2023-02-20T01:23:37;265.63;;;240.55;;
43216;SDS011;60511;42.686;23.300;2023-02-20T01:25:37;209.30;;;189.75;;
43216;SDS011;60511;42.686;23.300;2023-02-20T01:27:38;322.70;;;290.55;;
43216;SDS011;60511;42.686;23.300;2023-02-20T01:29:38;373.65;;;330.17;;
43216;SDS011;60511;42.686;23.300;2023-02-20T01:31:38;296.77;;;268.27;;
43216;SDS011;60511;42.686;23.300;2023-02-20T01:33:40;307.65;;;276.77;;
43216;SDS011;60511;42.686;23.300;2023-02-20T01:35:41;269.83;;;243.05;;
43216;SDS011;60511;42.686;23.300;2023-02-20T01:37:41;246.38;;;223.18;;
43216;SDS011;60511;42.686;23.300;2023-02-20T01:39:42;309.73;;;280.38;;
43216;SDS011;60511;42.686;23.300;2023-02-20T01:41:42;309.80;;;280.13;;
43216;SDS011;60511;42.686;23.300;2023-02-20T01:43:43;233.68;;;211.43;;
43216;SDS011;60511;42.686;23.300;2023-02-20T01:45:44;245.05;;;222.20;;
43216;SDS011;60511;42.686;23.300;2023-02-20T01:47:45;247.07;;;223.55;;
43216;SDS011;60511;42.686;23.300;2023-02-20T01:49:50;356.20;;;322.00;;
43216;SDS011;60511;42.686;23.300;2023-02-20T01:52:39;357.23;;;321.85;;
43216;SDS011;60511;42.686;23.300;2023-02-20T01:54:20;417.05;;;349.30;;
43216;SDS011;60511;42.686;23.300;2023-02-20T01:56:23;387.58;;;347.25;;
43216;SDS011;60511;42.686;23.300;2023-02-20T01:58:30;280.65;;;253.77;;
43216;SDS011;60511;42.686;23.300;2023-02-20T02:00:36;410.10;;;364.08;;
43216;SDS011;60511;42.686;23.300;2023-02-20T02:02:39;406.05;;;359.88;;
43216;SDS011;60511;42.686;23.300;2023-02-20T02:04:44;408.35;;;312.67;;
43216;SDS011;60511;42.686;23.300;2023-02-20T02:06:47;333.08;;;300.98;;
43216;SDS011;60511;42.686;23.300;2023-02-20T02:08:51;662.97;;;415.00;;
43216;SDS011;60511;42.686;23.300;2023-02-20T02:13:02;931.40;;;466.83;;
43216;SDS011;60511;42.686;23.300;2023-02-20T02:15:08;331.88;;;299.60;;
43216;SDS011;60511;42.686;23.300;2023-02-20T02:46:13;946.58;;;557.13;;
43216;SDS011;60511;42.686;23.300;2023-02-20T02:48:29;1604.70;;;606.65;;
43216;SDS011;60511;42.686;23.300;2023-02-20T02:50:35;777.58;;;508.77;;
43216;SDS011;60511;42.686;23.300;2023-02-20T02:52:38;1355.55;;;595.30;;
43216;SDS011;60511;42.686;23.300;2023-02-20T02:54:48;1324.47;;;580.15;;
43216;SDS011;60511;42.686;23.300;2023-02-20T02:56:49;986.00;;;545.72;;
43216;SDS011;60511;42.686;23.300;2023-02-20T02:58:49;555.72;;;470.88;;
43216;SDS011;60511;42.686;23.300;2023-02-20T03:00:57;471.88;;;423.10;;
43216;SDS011;60511;42.686;23.300;2023-02-20T03:03:20;423.80;;;380.50;;
43216;SDS011;60511;42.686;23.300;2023-02-20T03:05:26;408.23;;;367.10;;
43216;SDS011;60511;42.686;23.300;2023-02-20T03:07:39;355.30;;;320.60;;
43216;SDS011;60511;42.686;23.300;2023-02-20T03:09:53;404.70;;;363.42;;
43216;SDS011;60511;42.686;23.300;2023-02-20T03:12:00;330.35;;;297.80;;
43216;SDS011;60511;42.686;23.300;2023-02-20T03:14:04;418.65;;;376.88;;
43216;SDS011;60511;42.686;23.300;2023-02-20T03:16:31;382.92;;;345.15;;
43216;SDS011;60511;42.686;23.300;2023-02-20T03:18:39;338.38;;;305.10;;
43216;SDS011;60511;42.686;23.300;2023-02-20T03:20:44;344.35;;;311.33;;
43216;SDS011;60511;42.686;23.300;2023-02-20T03:22:54;346.90;;;313.70;;
43216;SDS011;60511;42.686;23.300;2023-02-20T03:24:59;414.77;;;373.52;;
43216;SDS011;60511;42.686;23.300;2023-02-20T03:27:04;564.42;;;466.10;;
43216;SDS011;60511;42.686;23.300;2023-02-20T03:29:16;386.17;;;348.27;;
43216;SDS011;60511;42.686;23.300;2023-02-20T03:31:33;350.60;;;315.77;;
43216;SDS011;60511;42.686;23.300;2023-02-20T03:33:42;471.73;;;402.08;;
43216;SDS011;60511;42.686;23.300;2023-02-20T03:36:03;327.98;;;296.27;;
43216;SDS011;60511;42.686;23.300;2023-02-20T03:40:46;252.57;;;228.93;;
43216;SDS011;60511;42.686;23.300;2023-02-20T03:43:12;209.50;;;190.25;;
43216;SDS011;60511;42.686;23.300;2023-02-20T03:45:26;195.52;;;177.60;;
43216;SDS011;60511;42.686;23.300;2023-02-20T03:47:29;205.35;;;186.45;;
43216;SDS011;60511;42.686;23.300;2023-02-20T03:51:39;188.35;;;171.07;;
43216;SDS011;60511;42.686;23.300;2023-02-20T03:53:40;213.18;;;193.82;;
43216;SDS011;60511;42.686;23.300;2023-02-20T03:55:43;214.90;;;195.32;;
43216;SDS011;60511;42.686;23.300;2023-02-20T03:57:47;203.60;;;185.15;;
43216;SDS011;60511;42.686;23.300;2023-02-20T03:59:52;185.35;;;168.40;;
43216;SDS011;60511;42.686;23.300;2023-02-20T04:01:58;198.63;;;180.85;;
43216;SDS011;60511;42.686;23.300;2023-02-20T04:04:02;185.15;;;168.40;;
43216;SDS011;60511;42.686;23.300;2023-02-20T04:08:09;185.45;;;168.45;;
43216;SDS011;60511;42.686;23.300;2023-02-20T04:10:17;180.73;;;164.15;;
43216;SDS011;60511;42.686;23.300;2023-02-20T04:12:26;179.98;;;163.25;;
43216;SDS011;60511;42.686;23.300;2023-02-20T04:14:31;167.40;;;152.18;;
43216;SDS011;60511;42.686;23.300;2023-02-20T04:16:34;172.32;;;156.70;;
43216;SDS011;60511;42.686;23.300;2023-02-20T04:18:41;162.35;;;147.48;;
43216;SDS011;60511;42.686;23.300;2023-02-20T04:20:41;162.93;;;148.13;;
43216;SDS011;60511;42.686;23.300;2023-02-20T04:22:42;163.70;;;148.75;;
43216;SDS011;60511;42.686;23.300;2023-02-20T04:24:47;157.70;;;143.63;;
43216;SDS011;60511;42.686;23.300;2023-02-20T04:26:53;159.50;;;144.98;;
43216;SDS011;60511;42.686;23.300;2023-02-20T04:28:54;148.68;;;135.15;;
43216;SDS011;60511;42.686;23.300;2023-02-20T04:30:54;153.93;;;140.07;;
43216;SDS011;60511;42.686;23.300;2023-02-20T04:32:55;152.93;;;139.10;;
43216;SDS011;60511;42.686;23.300;2023-02-20T04:34:55;147.30;;;134.07;;
43216;SDS011;60511;42.686;23.300;2023-02-20T04:39:29;139.27;;;126.55;;
43216;SDS011;60511;42.686;23.300;2023-02-20T04:41:29;134.55;;;122.47;;
43216;SDS011;60511;42.686;23.300;2023-02-20T04:43:29;132.82;;;121.00;;
43216;SDS011;60511;42.686;23.300;2023-02-20T04:45:31;132.10;;;120.47;;
43216;SDS011;60511;42.686;23.300;2023-02-20T04:47:39;135.35;;;123.18;;
43216;SDS011;60511;42.686;23.300;2023-02-20T04:49:39;139.32;;;126.65;;
43216;SDS011;60511;42.686;23.300;2023-02-20T04:51:39;126.50;;;115.28;;
43216;SDS011;60511;42.686;23.300;2023-02-20T04:53:40;129.02;;;117.32;;
43216;SDS011;60511;42.686;23.300;2023-02-20T04:55:40;125.05;;;114.07;;
43216;SDS011;60511;42.686;23.300;2023-02-20T04:57:40;128.18;;;116.57;;
43216;SDS011;60511;42.686;23.300;2023-02-20T04:59:41;126.47;;;115.18;;
43216;SDS011;60511;42.686;23.300;2023-02-20T05:01:41;121.88;;;110.80;;
43216;SDS011;60511;42.686;23.300;2023-02-20T05:03:46;123.50;;;112.40;;
43216;SDS011;60511;42.686;23.300;2023-02-20T05:05:47;119.72;;;109.13;;
43216;SDS011;60511;42.686;23.300;2023-02-20T05:07:47;118.32;;;107.70;;
43216;SDS011;60511;42.686;23.300;2023-02-20T05:09:48;117.97;;;107.38;;
43216;SDS011;60511;42.686;23.300;2023-02-20T05:11:49;119.22;;;108.40;;
43216;SDS011;60511;42.686;23.300;2023-02-20T05:13:49;120.68;;;109.72;;
43216;SDS011;60511;42.686;23.300;2023-02-20T05:15:49;112.75;;;102.47;;
43216;SDS011;60511;42.686;23.300;2023-02-20T05:17:50;115.53;;;105.25;;
43216;SDS011;60511;42.686;23.300;2023-02-20T05:19:50;111.53;;;101.70;;
43216;SDS011;60511;42.686;23.300;2023-02-20T05:21:51;106.05;;;96.80;;
43216;SDS011;60511;42.686;23.300;2023-02-20T05:24:10;107.35;;;97.82;;
43216;SDS011;60511;42.686;23.300;2023-02-20T05:26:11;109.55;;;99.50;;
43216;SDS011;60511;42.686;23.300;2023-02-20T05:28:17;110.32;;;100.18;;
43216;SDS011;60511;42.686;23.300;2023-02-20T05:30:17;107.65;;;97.93;;
43216;SDS011;60511;42.686;23.300;2023-02-20T05:32:18;107.78;;;98.10;;
43216;SDS011;60511;42.686;23.300;2023-02-20T05:34:20;107.10;;;97.47;;
43216;SDS011;60511;42.686;23.300;2023-02-20T05:36:21;103.20;;;93.80;;
43216;SDS011;60511;42.686;23.300;2023-02-20T05:38:21;103.88;;;94.50;;
43216;SDS011;60511;42.686;23.300;2023-02-20T05:40:22;102.43;;;93.18;;
43216;SDS011;60511;42.686;23.300;2023-02-20T05:42:22;100.75;;;91.65;;
43216;SDS011;60511;42.686;23.300;2023-02-20T05:44:23;102.43;;;93.13;;
43216;SDS011;60511;42.686;23.300;2023-02-20T05:46:24;102.50;;;93.20;;
43216;SDS011;60511;42.686;23.300;2023-02-20T05:48:25;98.70;;;89.97;;
43216;SDS011;60511;42.686;23.300;2023-02-20T05:50:26;93.10;;;84.78;;
43216;SDS011;60511;42.686;23.300;2023-02-20T05:52:26;94.28;;;85.75;;
43216;SDS011;60511;42.686;23.300;2023-02-20T05:54:26;95.90;;;87.20;;
43216;SDS011;60511;42.686;23.300;2023-02-20T05:56:28;92.60;;;84.22;;
43216;SDS011;60511;42.686;23.300;2023-02-20T05:58:29;96.10;;;87.50;;
43216;SDS011;60511;42.686;23.300;2023-02-20T06:00:29;92.50;;;84.32;;
43216;SDS011;60511;42.686;23.300;2023-02-20T06:02:32;90.93;;;82.55;;
43216;SDS011;60511;42.686;23.300;2023-02-20T06:06:37;88.15;;;80.22;;
43216;SDS011;60511;42.686;23.300;2023-02-20T06:08:39;87.28;;;79.38;;
43216;SDS011;60511;42.686;23.300;2023-02-20T06:10:40;92.03;;;83.53;;
43216;SDS011;60511;42.686;23.300;2023-02-20T06:12:40;86.10;;;78.60;;
43216;SDS011;60511;42.686;23.300;2023-02-20T06:14:40;86.80;;;79.13;;
43216;SDS011;60511;42.686;23.300;2023-02-20T06:16:41;85.57;;;77.75;;
43216;SDS011;60511;42.686;23.300;2023-02-20T06:18:42;84.38;;;76.68;;
43216;SDS011;60511;42.686;23.300;2023-02-20T06:20:42;83.40;;;75.90;;
43216;SDS011;60511;42.686;23.300;2023-02-20T06:22:42;81.85;;;74.65;;
43216;SDS011;60511;42.686;23.300;2023-02-20T06:24:45;84.43;;;76.95;;
43216;SDS011;60511;42.686;23.300;2023-02-20T06:26:47;81.80;;;74.45;;
43216;SDS011;60511;42.686;23.300;2023-02-20T06:28:47;79.00;;;71.88;;
43216;SDS011;60511;42.686;23.300;2023-02-20T06:30:49;76.88;;;70.00;;
43216;SDS011;60511;42.686;23.300;2023-02-20T06:32:50;81.07;;;73.75;;
43216;SDS011;60511;42.686;23.300;2023-02-20T06:34:51;77.30;;;70.25;;
43216;SDS011;60511;42.686;23.300;2023-02-20T06:36:51;76.35;;;69.45;;
43216;SDS011;60511;42.686;23.300;2023-02-20T06:38:51;77.43;;;70.55;;
43216;SDS011;60511;42.686;23.300;2023-02-20T06:40:52;77.25;;;70.38;;
43216;SDS011;60511;42.686;23.300;2023-02-20T06:42:53;72.85;;;66.20;;
43216;SDS011;60511;42.686;23.300;2023-02-20T06:44:53;73.35;;;66.75;;
43216;SDS011;60511;42.686;23.300;2023-02-20T06:46:54;72.88;;;66.15;;
43216;SDS011;60511;42.686;23.300;2023-02-20T06:48:55;69.03;;;62.88;;
43216;SDS011;60511;42.686;23.300;2023-02-20T06:50:56;74.25;;;67.28;;
43216;SDS011;60511;42.686;23.300;2023-02-20T06:52:57;69.68;;;63.38;;
43216;SDS011;60511;42.686;23.300;2023-02-20T06:54:57;68.78;;;62.60;;
43216;SDS011;60511;42.686;23.300;2023-02-20T06:56:58;68.25;;;62.08;;
43216;SDS011;60511;42.686;23.300;2023-02-20T06:58:59;65.55;;;59.58;;
43216;SDS011;60511;42.686;23.300;2023-02-20T07:01:01;66.45;;;60.17;;
43216;SDS011;60511;42.686;23.300;2023-02-20T07:03:01;65.55;;;59.58;;
43216;SDS011;60511;42.686;23.300;2023-02-20T07:05:05;65.05;;;59.25;;
43216;SDS011;60511;42.686;23.300;2023-02-20T07:07:05;64.60;;;58.92;;
43216;SDS011;60511;42.686;23.300;2023-02-20T07:09:06;63.85;;;57.85;;
43216;SDS011;60511;42.686;23.300;2023-02-20T07:11:07;64.30;;;58.35;;
43216;SDS011;60511;42.686;23.300;2023-02-20T07:13:07;59.00;;;53.45;;
43216;SDS011;60511;42.686;23.300;2023-02-20T07:15:09;58.38;;;53.22;;
43216;SDS011;60511;42.686;23.300;2023-02-20T07:17:10;60.83;;;55.08;;
43216;SDS011;60511;42.686;23.300;2023-02-20T07:19:10;58.00;;;52.80;;
43216;SDS011;60511;42.686;23.300;2023-02-20T07:21:11;56.60;;;51.60;;
43216;SDS011;60511;42.686;23.300;2023-02-20T07:23:11;55.17;;;50.13;;
43216;SDS011;60511;42.686;23.300;2023-02-20T07:25:13;57.40;;;52.28;;
43216;SDS011;60511;42.686;23.300;2023-02-20T07:27:13;57.95;;;52.50;;
43216;SDS011;60511;42.686;23.300;2023-02-20T07:29:13;51.47;;;46.88;;
43216;SDS011;60511;42.686;23.300;2023-02-20T07:31:14;53.03;;;48.17;;
43216;SDS011;60511;42.686;23.300;2023-02-20T07:33:17;52.10;;;47.40;;
43216;SDS011;60511;42.686;23.300;2023-02-20T07:37:18;49.20;;;44.78;;
43216;SDS011;60511;42.686;23.300;2023-02-20T07:39:19;50.28;;;45.88;;
43216;SDS011;60511;42.686;23.300;2023-02-20T07:41:20;47.22;;;43.10;;
43216;SDS011;60511;42.686;23.300;2023-02-20T07:43:23;45.03;;;41.03;;
43216;SDS011;60511;42.686;23.300;2023-02-20T07:45:23;46.65;;;42.47;;
43216;SDS011;60511;42.686;23.300;2023-02-20T07:47:24;44.22;;;40.45;;
43216;SDS011;60511;42.686;23.300;2023-02-20T07:49:25;44.40;;;40.53;;
43216;SDS011;60511;42.686;23.300;2023-02-20T07:51:25;42.35;;;38.45;;
43216;SDS011;60511;42.686;23.300;2023-02-20T07:53:25;43.58;;;39.60;;
43216;SDS011;60511;42.686;23.300;2023-02-20T07:55:26;40.92;;;37.33;;
43216;SDS011;60511;42.686;23.300;2023-02-20T07:57:28;42.55;;;38.67;;
43216;SDS011;60511;42.686;23.300;2023-02-20T07:59:31;39.88;;;36.35;;
43216;SDS011;60511;42.686;23.300;2023-02-20T08:01:32;41.45;;;37.80;;
43216;SDS011;60511;42.686;23.300;2023-02-20T08:03:32;39.15;;;35.72;;
43216;SDS011;60511;42.686;23.300;2023-02-20T08:05:32;37.90;;;34.65;;
43216;SDS011;60511;42.686;23.300;2023-02-20T08:07:33;40.00;;;36.33;;
43216;SDS011;60511;42.686;23.300;2023-02-20T08:09:34;37.10;;;33.78;;
43216;SDS011;60511;42.686;23.300;2023-02-20T08:11:34;38.70;;;35.30;;
43216;SDS011;60511;42.686;23.300;2023-02-20T08:13:36;38.25;;;34.95;;
43216;SDS011;60511;42.686;23.300;2023-02-20T08:15:37;37.47;;;34.30;;
43216;SDS011;60511;42.686;23.300;2023-02-20T08:17:38;40.67;;;36.88;;
43216;SDS011;60511;42.686;23.300;2023-02-20T08:19:39;38.80;;;35.40;;
43216;SDS011;60511;42.686;23.300;2023-02-20T08:21:39;37.30;;;34.00;;
43216;SDS011;60511;42.686;23.300;2023-02-20T08:23:39;36.80;;;33.65;;
43216;SDS011;60511;42.686;23.300;2023-02-20T08:25:40;36.53;;;33.20;;
43216;SDS011;60511;42.686;23.300;2023-02-20T08:27:41;34.88;;;31.85;;
43216;SDS011;60511;42.686;23.300;2023-02-20T08:29:44;36.15;;;32.95;;
43216;SDS011;60511;42.686;23.300;2023-02-20T08:31:45;34.58;;;31.55;;
43216;SDS011;60511;42.686;23.300;2023-02-20T08:33:45;33.72;;;30.73;;
43216;SDS011;60511;42.686;23.300;2023-02-20T08:35:46;31.40;;;28.63;;
43216;SDS011;60511;42.686;23.300;2023-02-20T08:37:48;32.95;;;29.95;;
43216;SDS011;60511;42.686;23.300;2023-02-20T08:39:49;30.70;;;28.00;;
43216;SDS011;60511;42.686;23.300;2023-02-20T08:41:49;30.05;;;27.33;;
43216;SDS011;60511;42.686;23.300;2023-02-20T08:43:50;30.95;;;28.15;;
43216;SDS011;60511;42.686;23.300;2023-02-20T08:45:50;28.80;;;25.90;;
43216;SDS011;60511;42.686;23.300;2023-02-20T08:47:50;28.17;;;25.50;;
43216;SDS011;60511;42.686;23.300;2023-02-20T08:49:51;26.80;;;24.27;;
43216;SDS011;60511;42.686;23.300;2023-02-20T08:51:52;22.33;;;20.30;;
43216;SDS011;60511;42.686;23.300;2023-02-20T08:53:54;24.13;;;22.03;;
43216;SDS011;60511;42.686;23.300;2023-02-20T08:55:54;22.92;;;20.92;;
43216;SDS011;60511;42.686;23.300;2023-02-20T08:57:55;24.02;;;21.77;;
43216;SDS011;60511;42.686;23.300;2023-02-20T08:59:55;23.55;;;21.40;;
43216;SDS011;60511;42.686;23.300;2023-02-20T09:01:55;24.35;;;21.83;;
43216;SDS011;60511;42.686;23.300;2023-02-20T09:03:56;23.25;;;21.15;;
43216;SDS011;60511;42.686;23.300;2023-02-20T09:05:56;22.27;;;20.20;;
43216;SDS011;60511;42.686;23.300;2023-02-20T09:07:57;22.48;;;20.42;;
43216;SDS011;60511;42.686;23.300;2023-02-20T09:09:57;22.23;;;20.30;;
43216;SDS011;60511;42.686;23.300;2023-02-20T09:11:57;23.40;;;21.20;;
43216;SDS011;60511;42.686;23.300;2023-02-20T09:13:58;23.00;;;20.95;;
43216;SDS011;60511;42.686;23.300;2023-02-20T09:15:58;23.05;;;20.90;;
43216;SDS011;60511;42.686;23.300;2023-02-20T09:17:58;20.05;;;18.27;;
43216;SDS011;60511;42.686;23.300;2023-02-20T09:19:59;20.88;;;19.08;;
43216;SDS011;60511;42.686;23.300;2023-02-20T09:21:59;19.33;;;17.55;;
43216;SDS011;60511;42.686;23.300;2023-02-20T09:24:01;20.75;;;18.88;;
43216;SDS011;60511;42.686;23.300;2023-02-20T09:26:02;20.17;;;18.42;;
43216;SDS011;60511;42.686;23.300;2023-02-20T09:28:03;19.85;;;18.13;;
43216;SDS011;60511;42.686;23.300;2023-02-20T09:30:05;18.95;;;17.15;;
43216;SDS011;60511;42.686;23.300;2023-02-20T09:32:06;19.27;;;17.58;;
43216;SDS011;60511;42.686;23.300;2023-02-20T09:34:06;18.42;;;16.73;;
43216;SDS011;60511;42.686;23.300;2023-02-20T09:36:07;18.63;;;17.02;;
43216;SDS011;60511;42.686;23.300;2023-02-20T09:38:07;18.75;;;17.02;;
43216;SDS011;60511;42.686;23.300;2023-02-20T09:40:08;18.17;;;16.58;;
43216;SDS011;60511;42.686;23.300;2023-02-20T09:46:29;16.85;;;15.35;;
43216;SDS011;60511;42.686;23.300;2023-02-20T09:48:34;17.38;;;15.88;;
43216;SDS011;60511;42.686;23.300;2023-02-20T09:51:01;16.98;;;15.43;;
43216;SDS011;60511;42.686;23.300;2023-02-20T09:55:11;15.93;;;14.55;;
43216;SDS011;60511;42.686;23.300;2023-02-20T09:57:23;16.10;;;14.70;;
43216;SDS011;60511;42.686;23.300;2023-02-20T09:59:40;16.45;;;15.05;;
43216;SDS011;60511;42.686;23.300;2023-02-20T10:02:28;16.00;;;14.60;;
43216;SDS011;60511;42.686;23.300;2023-02-20T10:04:14;15.85;;;14.55;;
43216;SDS011;60511;42.686;23.300;2023-02-20T10:06:20;16.33;;;14.60;;
43216;SDS011;60511;42.686;23.300;2023-02-20T10:08:24;15.18;;;13.88;;
43216;SDS011;60511;42.686;23.300;2023-02-20T10:10:26;15.55;;;14.18;;
43216;SDS011;60511;42.686;23.300;2023-02-20T10:19:19;14.40;;;13.13;;
43216;SDS011;60511;42.686;23.300;2023-02-20T10:26:53;13.68;;;12.48;;
43216;SDS011;60511;42.686;23.300;2023-02-20T10:29:14;13.25;;;12.05;;
43216;SDS011;60511;42.686;23.300;2023-02-20T10:33:46;13.25;;;12.15;;
43216;SDS011;60511;42.686;23.300;2023-02-20T10:38:07;13.80;;;12.57;;
43216;SDS011;60511;42.686;23.300;2023-02-20T10:44:34;13.77;;;12.63;;
43216;SDS011;60511;42.686;23.300;2023-02-20T10:46:45;12.77;;;11.68;;
43216;SDS011;60511;42.686;23.300;2023-02-20T10:48:51;14.02;;;12.82;;
43216;SDS011;60511;42.686;23.300;2023-02-20T10:58:00;12.13;;;11.13;;
43216;SDS011;60511;42.686;23.300;2023-02-20T11:00:12;11.18;;;10.18;;
43216;SDS011;60511;42.686;23.300;2023-02-20T11:02:18;12.32;;;11.23;;
43216;SDS011;60511;42.686;23.300;2023-02-20T11:04:24;12.43;;;11.32;;
43216;SDS011;60511;42.686;23.300;2023-02-20T11:06:31;11.60;;;10.60;;
43216;SDS011;60511;42.686;23.300;2023-02-20T11:08:36;11.85;;;10.75;;
43216;SDS011;60511;42.686;23.300;2023-02-20T11:10:37;11.52;;;10.60;;
43216;SDS011;60511;42.686;23.300;2023-02-20T11:12:45;11.70;;;10.52;;
43216;SDS011;60511;42.686;23.300;2023-02-20T11:14:49;11.90;;;10.68;;
43216;SDS011;60511;42.686;23.300;2023-02-20T11:16:56;12.07;;;11.07;;
43216;SDS011;60511;42.686;23.300;2023-02-20T11:19:01;12.00;;;10.93;;
43216;SDS011;60511;42.686;23.300;2023-02-20T11:21:06;11.23;;;10.25;;
43216;SDS011;60511;42.686;23.300;2023-02-20T11:23:06;11.55;;;10.48;;
43216;SDS011;60511;42.686;23.300;2023-02-20T11:25:25;10.70;;;9.70;;
43216;SDS011;60511;42.686;23.300;2023-02-20T11:27:28;10.50;;;9.60;;
43216;SDS011;60511;42.686;23.300;2023-02-20T11:29:39;10.93;;;9.93;;
43216;SDS011;60511;42.686;23.300;2023-02-20T11:31:46;11.20;;;10.30;;
43216;SDS011;60511;42.686;23.300;2023-02-20T11:33:46;10.75;;;9.75;;
43216;SDS011;60511;42.686;23.300;2023-02-20T11:35:49;11.38;;;10.27;;
43216;SDS011;60511;42.686;23.300;2023-02-20T11:42:33;9.57;;;8.77;;
43216;SDS011;60511;42.686;23.300;2023-02-20T11:44:34;8.93;;;8.23;;
43216;SDS011;60511;42.686;23.300;2023-02-20T11:46:35;10.20;;;9.30;;
43216;SDS011;60511;42.686;23.300;2023-02-20T11:48:36;10.35;;;9.40;;
43216;SDS011;60511;42.686;23.300;2023-02-20T11:50:46;10.63;;;9.73;;
43216;SDS011;60511;42.686;23.300;2023-02-20T11:52:58;9.20;;;8.30;;
43216;SDS011;60511;42.686;23.300;2023-02-20T11:57:19;8.98;;;8.25;;
43216;SDS011;60511;42.686;23.300;2023-02-20T11:59:31;8.35;;;7.68;;
43216;SDS011;60511;42.686;23.300;2023-02-20T12:01:39;9.00;;;8.30;;
43216;SDS011;60511;42.686;23.300;2023-02-20T12:03:40;9.60;;;8.80;;
43216;SDS011;60511;42.686;23.300;2023-02-20T12:05:54;8.77;;;7.97;;
43216;SDS011;60511;42.686;23.300;2023-02-20T12:07:57;8.00;;;7.28;;
43216;SDS011;60511;42.686;23.300;2023-02-20T12:10:00;8.67;;;7.90;;
43216;SDS011;60511;42.686;23.300;2023-02-20T12:12:10;8.98;;;8.18;;
43216;SDS011;60511;42.686;23.300;2023-02-20T12:20:33;8.82;;;8.05;;
43216;SDS011;60511;42.686;23.300;2023-02-20T12:22:46;7.70;;;7.10;;
43216;SDS011;60511;42.686;23.300;2023-02-20T12:27:16;8.60;;;6.97;;
43216;SDS011;60511;42.686;23.300;2023-02-20T12:29:44;7.75;;;7.10;;
43216;SDS011;60511;42.686;23.300;2023-02-20T12:34:10;7.82;;;7.07;;
43216;SDS011;60511;42.686;23.300;2023-02-20T12:36:41;7.60;;;6.88;;
43216;SDS011;60511;42.686;23.300;2023-02-20T12:41:08;7.97;;;7.28;;
43216;SDS011;60511;42.686;23.300;2023-02-20T12:45:49;7.20;;;6.60;;
43216;SDS011;60511;42.686;23.300;2023-02-20T12:55:02;5.82;;;5.28;;
43216;SDS011;60511;42.686;23.300;2023-02-20T12:59:21;6.68;;;6.00;;
43216;SDS011;60511;42.686;23.300;2023-02-20T13:01:27;6.72;;;6.13;;
43216;SDS011;60511;42.686;23.300;2023-02-20T13:06:43;6.22;;;5.63;;
43216;SDS011;60511;42.686;23.300;2023-02-20T13:08:53;5.90;;;5.40;;
43216;SDS011;60511;42.686;23.300;2023-02-20T13:11:04;6.53;;;6.03;;
43216;SDS011;60511;42.686;23.300;2023-02-20T13:13:17;6.13;;;5.63;;
43216;SDS011;60511;42.686;23.300;2023-02-20T13:15:22;5.97;;;5.47;;
43216;SDS011;60511;42.686;23.300;2023-02-20T13:20:29;6.30;;;5.78;;
43216;SDS011;60511;42.686;23.300;2023-02-20T13:22:16;5.40;;;4.95;;
43216;SDS011;60511;42.686;23.300;2023-02-20T13:28:39;5.70;;;5.20;;
43216;SDS011;60511;42.686;23.300;2023-02-20T13:31:06;5.30;;;4.80;;
43216;SDS011;60511;42.686;23.300;2023-02-20T13:39:36;5.70;;;5.20;;
43216;SDS011;60511;42.686;23.300;2023-02-20T13:43:54;5.70;;;4.90;;
43216;SDS011;60511;42.686;23.300;2023-02-20T13:46:26;5.78;;;5.18;;
43216;SDS011;60511;42.686;23.300;2023-02-20T13:50:30;4.68;;;4.28;;
43216;SDS011;60511;42.686;23.300;2023-02-20T13:54:40;6.07;;;5.50;;
43216;SDS011;60511;42.686;23.300;2023-02-20T13:56:56;6.10;;;5.55;;
43216;SDS011;60511;42.686;23.300;2023-02-20T13:59:00;5.45;;;4.95;;
43216;SDS011;60511;42.686;23.300;2023-02-20T14:01:00;5.13;;;4.72;;